createdAt,value
2022-10-23T00:02:05.701Z,14.70
2022-10-23T00:04:35.439Z,14.70
2022-10-23T00:07:05.217Z,14.70
2022-10-23T00:09:34.942Z,14.70
2022-10-23T00:12:04.595Z,14.70
2022-10-23T00:14:37.269Z,14.70
2022-10-23T00:17:10.718Z,14.70
2022-10-23T00:19:40.556Z,14.60
2022-10-23T00:22:11.421Z,14.60
2022-10-23T00:24:41.118Z,14.60
2022-10-23T00:27:11.025Z,14.60
2022-10-23T00:29:43.299Z,14.60
2022-10-23T00:32:13.016Z,14.60
2022-10-23T00:34:42.671Z,14.70
2022-10-23T00:37:12.395Z,14.70
2022-10-23T00:39:42.103Z,14.70
2022-10-23T00:42:13.298Z,14.70
2022-10-23T00:44:57.999Z,14.60
2022-10-23T00:47:30.274Z,14.60
2022-10-23T00:50:01.858Z,14.60
2022-10-23T00:52:32.419Z,14.50
2022-10-23T00:55:02.220Z,14.50
2022-10-23T00:57:32.033Z,14.60
2022-10-23T01:00:01.786Z,14.60
2022-10-23T01:02:34.208Z,14.60
2022-10-23T01:05:04.042Z,14.60
2022-10-23T01:07:36.408Z,14.60
2022-10-23T01:10:08.637Z,14.60
2022-10-23T01:12:42.928Z,14.60
2022-10-23T01:15:16.680Z,14.60
2022-10-23T01:17:51.965Z,14.60
2022-10-23T01:20:45.489Z,14.60
2022-10-23T01:23:30.172Z,14.60
2022-10-23T01:26:10.748Z,14.60
2022-10-23T01:28:46.862Z,14.60
2022-10-23T01:31:19.274Z,14.40
2022-10-23T01:33:51.404Z,14.40
2022-10-23T01:36:23.695Z,14.30
2022-10-23T01:38:56.517Z,14.30
2022-10-23T01:41:31.231Z,14.30
2022-10-23T01:44:07.314Z,14.40
2022-10-23T01:46:38.442Z,14.40
2022-10-23T01:49:09.868Z,14.40
2022-10-23T01:51:40.756Z,14.40
2022-10-23T01:54:11.881Z,14.40
2022-10-23T01:56:44.211Z,14.30
2022-10-23T01:59:17.892Z,14.40
2022-10-23T02:01:49.777Z,14.30
2022-10-23T02:04:24.234Z,14.30
2022-10-23T02:06:53.975Z,14.30
2022-10-23T02:09:23.704Z,14.30
2022-10-23T02:11:57.409Z,15.90
2022-10-23T02:14:35.287Z,14.30
2022-10-23T02:17:10.289Z,14.30
2022-10-23T02:19:43.429Z,14.30
2022-10-23T02:22:16.211Z,14.30
2022-10-23T02:24:48.595Z,14.30
2022-10-23T02:27:21.090Z,14.30
2022-10-23T02:29:55.023Z,14.40
2022-10-23T02:32:26.555Z,14.40
2022-10-23T02:34:56.227Z,14.40
2022-10-23T02:37:25.908Z,14.40
2022-10-23T02:39:56.240Z,14.40
2022-10-23T02:42:29.084Z,14.40
2022-10-23T02:45:05.065Z,14.30
2022-10-23T02:47:46.145Z,14.30
2022-10-23T02:50:19.690Z,14.30
2022-10-23T02:52:56.138Z,14.30
2022-10-23T02:55:32.621Z,14.20
2022-10-23T02:58:04.741Z,14.30
2022-10-23T03:00:38.812Z,14.30
2022-10-23T03:03:10.705Z,14.30
2022-10-23T03:05:45.009Z,14.30
2022-10-23T03:08:15.747Z,14.30
2022-10-23T03:10:45.877Z,14.20
2022-10-23T03:13:15.836Z,14.20
2022-10-23T03:15:48.146Z,14.30
2022-10-23T03:18:17.891Z,14.30
2022-10-23T03:20:47.584Z,14.40
2022-10-23T03:23:17.248Z,14.40
2022-10-23T03:25:46.972Z,14.30
2022-10-23T03:28:16.624Z,14.40
2022-10-23T03:30:48.920Z,14.40
2022-10-23T03:33:18.596Z,14.40
2022-10-23T03:38:38.139Z,14.40
2022-10-23T03:41:07.942Z,14.40
2022-10-23T03:43:37.581Z,14.40
2022-10-23T03:46:13.005Z,14.40
2022-10-23T03:48:42.834Z,14.40
2022-10-23T03:51:12.636Z,14.30
2022-10-23T03:53:42.304Z,14.30
2022-10-23T03:56:12.168Z,14.30
2022-10-23T03:58:42.341Z,14.30
2022-10-23T04:01:14.714Z,14.30
2022-10-23T04:03:44.682Z,14.30
2022-10-23T04:06:14.328Z,14.30
2022-10-23T04:08:45.535Z,14.30
2022-10-23T04:11:15.203Z,14.30
2022-10-23T04:13:44.932Z,14.20
2022-10-23T04:16:17.301Z,14.20
2022-10-23T04:18:47.172Z,14.20
2022-10-23T04:21:17.115Z,14.30
2022-10-23T04:23:47.023Z,14.30
2022-10-23T04:26:17.005Z,14.20
2022-10-23T04:28:46.730Z,14.20
2022-10-23T04:31:19.086Z,14.20
2022-10-23T04:33:49.079Z,14.20
2022-10-23T04:36:18.883Z,14.20
2022-10-23T04:38:48.636Z,14.20
2022-10-23T04:41:18.409Z,14.10
2022-10-23T04:43:48.265Z,14.10
2022-10-23T04:46:20.638Z,14.10
2022-10-23T04:48:53.343Z,14.10
2022-10-23T04:51:23.034Z,14.00
2022-10-23T04:53:52.823Z,14.00
2022-10-23T04:56:22.741Z,14.00
2022-10-23T04:58:52.700Z,14.00
2022-10-23T05:01:25.173Z,14.00
2022-10-23T05:03:56.807Z,14.00
2022-10-23T05:06:26.599Z,14.00
2022-10-23T05:08:56.386Z,14.00
2022-10-23T05:11:26.204Z,13.90
2022-10-23T05:13:55.981Z,14.00
2022-10-23T05:16:32.188Z,14.10
2022-10-23T05:19:02.697Z,14.10
2022-10-23T05:21:34.467Z,14.10
2022-10-23T05:24:04.367Z,14.10
2022-10-23T05:26:35.031Z,14.10
2022-10-23T05:29:05.027Z,14.10
2022-10-23T05:31:38.268Z,14.20
2022-10-23T05:34:11.172Z,14.20
2022-10-23T05:36:43.405Z,14.20
2022-10-23T05:39:13.380Z,14.20
2022-10-23T05:41:43.225Z,14.20
2022-10-23T05:44:12.872Z,14.20
2022-10-23T05:46:46.367Z,14.20
2022-10-23T05:49:16.125Z,14.20
2022-10-23T05:51:45.896Z,14.30
2022-10-23T05:54:15.634Z,14.30
2022-10-23T05:56:45.574Z,14.30
2022-10-23T05:59:17.878Z,14.20
2022-10-23T06:01:52.985Z,14.20
2022-10-23T06:04:25.148Z,14.10
2022-10-23T06:06:54.889Z,14.20
2022-10-23T06:09:24.653Z,14.20
2022-10-23T06:11:54.333Z,14.20
2022-10-23T06:14:24.049Z,14.20
2022-10-23T06:16:56.377Z,14.20
2022-10-23T06:19:26.054Z,14.20
2022-10-23T06:21:55.773Z,14.30
2022-10-23T06:24:25.599Z,14.30
2022-10-23T06:26:55.380Z,14.30
2022-10-23T06:29:25.212Z,14.20
2022-10-23T06:31:57.573Z,14.20
2022-10-23T06:34:27.420Z,14.20
2022-10-23T06:36:57.179Z,14.20
2022-10-23T06:39:29.797Z,14.20
2022-10-23T06:42:01.733Z,14.30
2022-10-23T06:44:31.475Z,14.30
2022-10-23T06:47:03.844Z,14.30
2022-10-23T06:49:33.623Z,14.30
2022-10-23T06:52:03.385Z,14.30
2022-10-23T06:54:33.177Z,14.30
2022-10-23T06:57:02.944Z,14.30
2022-10-23T06:59:32.850Z,14.40
2022-10-23T07:02:05.452Z,14.50
2022-10-23T07:04:35.427Z,14.50
2022-10-23T07:07:06.639Z,14.50
2022-10-23T07:09:38.035Z,14.50
2022-10-23T07:12:10.037Z,14.50
2022-10-23T07:14:39.840Z,14.60
2022-10-23T07:17:12.226Z,14.60
2022-10-23T07:19:41.987Z,14.80
2022-10-23T07:22:14.923Z,14.80
2022-10-23T07:24:45.659Z,14.90
2022-10-23T07:27:15.515Z,14.90
2022-10-23T07:29:45.237Z,14.90
2022-10-23T07:32:17.752Z,15.00
2022-10-23T07:34:47.526Z,15.00
2022-10-23T07:37:17.249Z,15.00
2022-10-23T07:39:46.927Z,15.10
2022-10-23T07:42:16.580Z,15.00
2022-10-23T07:44:46.296Z,15.10
2022-10-23T07:47:18.722Z,15.10
2022-10-23T07:49:49.876Z,15.10
2022-10-23T07:52:19.618Z,15.20
2022-10-23T07:54:49.356Z,15.10
2022-10-23T07:57:19.072Z,15.20
2022-10-23T07:59:48.862Z,15.20
2022-10-23T08:02:26.803Z,15.20
2022-10-23T08:04:56.690Z,15.20
2022-10-23T08:07:26.442Z,15.30
2022-10-23T08:09:56.482Z,15.30
2022-10-23T08:12:26.306Z,15.30
2022-10-23T08:14:56.280Z,15.40
2022-10-23T08:17:28.818Z,15.40
2022-10-23T08:19:58.622Z,15.50
2022-10-23T08:22:28.375Z,15.50
2022-10-23T08:24:58.143Z,15.60
2022-10-23T08:27:27.946Z,15.60
2022-10-23T08:29:57.741Z,15.60
2022-10-23T08:32:31.171Z,15.60
2022-10-23T08:35:00.843Z,15.60
2022-10-23T08:37:30.533Z,15.60
2022-10-23T08:40:00.427Z,15.60
2022-10-23T08:42:30.420Z,15.60
2022-10-23T08:45:03.685Z,15.70
2022-10-23T08:47:39.342Z,15.70
2022-10-23T08:50:13.567Z,15.60
2022-10-23T08:52:47.697Z,15.60
2022-10-23T08:55:19.615Z,15.60
2022-10-23T08:57:53.937Z,15.70
2022-10-23T09:00:23.723Z,15.70
2022-10-23T09:02:56.706Z,15.90
2022-10-23T09:05:29.173Z,15.80
2022-10-23T09:08:05.856Z,17.90
2022-10-23T09:10:40.355Z,15.90
2022-10-23T09:13:20.914Z,15.90
2022-10-23T09:15:56.793Z,15.90
2022-10-23T09:18:29.328Z,16.00
2022-10-23T09:20:59.132Z,16.00
2022-10-23T09:23:28.981Z,15.90
2022-10-23T09:25:58.748Z,16.00
2022-10-23T09:28:29.077Z,16.00
2022-10-23T09:31:08.509Z,16.10
2022-10-23T09:33:40.836Z,16.20
2022-10-23T09:36:12.626Z,16.30
2022-10-23T09:38:50.587Z,16.30
2022-10-23T09:41:22.213Z,16.40
2022-10-23T09:44:02.197Z,16.50
2022-10-23T09:46:41.294Z,16.50
2022-10-23T09:49:21.151Z,16.60
2022-10-23T09:52:03.667Z,16.60
2022-10-23T09:54:34.863Z,16.60
2022-10-23T09:57:07.389Z,16.70
2022-10-23T09:59:37.094Z,16.70
2022-10-23T10:02:06.914Z,16.70
2022-10-23T10:04:40.974Z,16.80
2022-10-23T10:07:20.356Z,16.80
2022-10-23T10:09:50.336Z,16.80
2022-10-23T10:12:42.070Z,16.90
2022-10-23T10:15:16.205Z,16.90
2022-10-23T10:17:48.218Z,16.90
2022-10-23T10:20:40.504Z,17.00
2022-10-23T10:23:16.166Z,17.10
2022-10-23T10:25:51.385Z,17.10
2022-10-23T10:28:28.394Z,17.10
2022-10-23T10:31:03.242Z,17.10
2022-10-23T10:33:38.578Z,17.10
2022-10-23T10:36:16.236Z,17.30
2022-10-23T10:38:47.546Z,17.40
2022-10-23T10:41:26.061Z,17.50
2022-10-23T10:44:01.648Z,17.50
2022-10-23T10:46:34.014Z,17.60
2022-10-23T10:49:06.431Z,17.60
2022-10-23T10:51:41.477Z,17.60
2022-10-23T10:54:17.684Z,17.70
2022-10-23T10:56:48.598Z,17.90
2022-10-23T10:59:22.656Z,17.80
2022-10-23T11:01:55.555Z,17.90
2022-10-23T11:04:28.530Z,18.00
2022-10-23T11:07:02.672Z,18.10
2022-10-23T11:09:33.188Z,18.30
2022-10-23T11:12:02.851Z,18.30
2022-10-23T11:14:33.737Z,18.40
2022-10-23T11:17:06.008Z,18.40
2022-10-23T11:19:38.467Z,18.50
2022-10-23T11:22:13.635Z,18.40
2022-10-23T11:25:07.294Z,18.40
2022-10-23T11:27:45.040Z,18.50
2022-10-23T11:30:26.439Z,18.50
2022-10-23T11:33:25.937Z,18.50
2022-10-23T11:36:00.695Z,18.50
2022-10-23T11:38:35.110Z,18.50
2022-10-23T11:41:06.465Z,18.60
2022-10-23T11:43:37.279Z,18.60
2022-10-23T11:46:16.841Z,18.60
2022-10-23T11:48:47.953Z,18.50
2022-10-23T11:51:29.073Z,18.50
2022-10-23T11:54:11.274Z,18.50
2022-10-23T11:56:41.519Z,18.60
2022-10-23T11:59:25.832Z,18.70
2022-10-23T12:01:56.746Z,18.70
2022-10-23T12:04:28.713Z,18.70
2022-10-23T12:07:00.051Z,18.80
2022-10-23T12:09:36.210Z,19.00
2022-10-23T12:12:08.171Z,19.10
2022-10-23T12:14:39.120Z,19.10
2022-10-23T12:17:21.665Z,19.10
2022-10-23T12:19:51.854Z,19.20
2022-10-23T12:22:22.625Z,19.20
2022-10-23T12:25:00.402Z,19.30
2022-10-23T12:27:34.999Z,19.30
2022-10-23T12:30:22.311Z,19.40
2022-10-23T12:33:00.387Z,19.30
2022-10-23T12:35:50.684Z,19.40
2022-10-23T12:38:21.617Z,19.40
2022-10-23T12:40:59.388Z,19.40
2022-10-23T12:43:30.119Z,19.50
2022-10-23T12:46:02.067Z,19.50
2022-10-23T12:48:31.711Z,19.50
2022-10-23T12:51:01.559Z,19.50
2022-10-23T12:53:31.332Z,19.50
2022-10-23T12:56:04.656Z,19.40
2022-10-23T12:58:34.996Z,19.60
2022-10-23T13:01:06.025Z,19.70
2022-10-23T13:03:37.033Z,21.20
2022-10-23T13:06:07.735Z,19.90
2022-10-23T13:08:40.315Z,19.90
2022-10-23T13:11:12.930Z,19.90
2022-10-23T13:13:43.316Z,20.00
2022-10-23T13:16:19.313Z,19.90
2022-10-23T13:18:49.210Z,19.90
2022-10-23T13:21:20.137Z,19.90
2022-10-23T13:23:50.032Z,20.00
2022-10-23T13:26:34.912Z,19.90
2022-10-23T13:29:09.613Z,20.00
2022-10-23T13:31:39.876Z,19.90
2022-10-23T13:34:17.989Z,20.10
2022-10-23T13:36:58.963Z,20.10
2022-10-23T13:39:29.893Z,20.10
2022-10-23T13:42:03.761Z,20.20
2022-10-23T13:44:33.401Z,20.20
2022-10-23T13:47:03.118Z,20.20
2022-10-23T13:49:32.902Z,20.10
2022-10-23T13:52:02.554Z,20.10
2022-10-23T13:54:32.623Z,20.10
2022-10-23T13:57:05.039Z,20.20
2022-10-23T13:59:34.699Z,20.10
2022-10-23T14:02:05.730Z,20.20
2022-10-23T14:04:35.605Z,20.20
2022-10-23T14:07:05.272Z,20.10
2022-10-23T14:09:35.021Z,20.10
2022-10-23T14:12:07.710Z,20.00
2022-10-23T14:14:37.382Z,20.00
2022-10-23T14:17:07.091Z,20.00
2022-10-23T14:22:26.566Z,19.90
2022-10-23T14:24:56.268Z,19.90
2022-10-23T14:27:29.533Z,19.90
2022-10-23T14:29:59.477Z,19.90
2022-10-23T14:32:29.160Z,19.90
2022-10-23T14:34:58.990Z,19.80
2022-10-23T14:37:28.662Z,19.80
2022-10-23T14:39:58.364Z,20.90
2022-10-23T14:42:34.217Z,19.70
2022-10-23T14:45:04.456Z,19.80
2022-10-23T14:47:34.510Z,19.80
2022-10-23T14:50:04.242Z,19.70
2022-10-23T14:52:33.952Z,19.70
2022-10-23T14:55:03.652Z,19.70
2022-10-23T14:57:36.189Z,19.60
2022-10-23T15:00:06.185Z,19.60
2022-10-23T15:02:36.960Z,19.60
2022-10-23T15:05:07.575Z,19.60
2022-10-23T15:07:37.317Z,19.60
2022-10-23T15:10:07.137Z,19.60
2022-10-23T15:12:39.818Z,19.50
2022-10-23T15:15:10.251Z,19.50
2022-10-23T15:17:39.921Z,19.50
2022-10-23T15:20:10.047Z,19.40
2022-10-23T15:22:39.712Z,19.50
2022-10-23T15:25:12.201Z,19.50
2022-10-23T15:27:48.517Z,19.50
2022-10-23T15:30:18.539Z,19.50
2022-10-23T15:32:48.391Z,19.40
2022-10-23T15:35:18.280Z,19.40
2022-10-23T15:37:48.038Z,19.40
2022-10-23T15:40:17.809Z,19.30
2022-10-23T15:42:53.010Z,19.30
2022-10-23T15:45:24.671Z,19.40
2022-10-23T15:47:56.290Z,19.30
2022-10-23T15:50:26.083Z,19.30
2022-10-23T15:52:55.865Z,19.30
2022-10-23T15:55:26.133Z,19.30
2022-10-23T15:58:02.215Z,19.30
2022-10-23T16:00:36.091Z,19.40
2022-10-23T16:03:06.315Z,19.20
2022-10-23T16:05:36.113Z,20.10
2022-10-23T16:08:06.437Z,19.30
2022-10-23T16:10:36.294Z,19.30
2022-10-23T16:13:08.584Z,19.30
2022-10-23T16:15:38.255Z,19.20
2022-10-23T16:18:08.999Z,19.20
2022-10-23T16:20:42.296Z,19.20
2022-10-23T16:23:11.976Z,19.10
2022-10-23T16:25:41.643Z,19.10
2022-10-23T16:28:13.948Z,19.10
2022-10-23T16:30:43.878Z,19.10
2022-10-23T16:33:13.563Z,19.10
2022-10-23T16:35:43.244Z,19.00
2022-10-23T16:38:12.919Z,19.00
2022-10-23T16:40:42.571Z,18.90
2022-10-23T16:43:14.876Z,19.00
2022-10-23T16:45:44.551Z,18.90
2022-10-23T16:48:14.229Z,18.80
2022-10-23T16:50:44.275Z,18.80
2022-10-23T16:53:13.964Z,18.70
2022-10-23T16:55:43.664Z,18.70
2022-10-23T16:58:15.968Z,18.70
2022-10-23T17:00:45.674Z,18.70
2022-10-23T17:03:15.467Z,18.60
2022-10-23T17:05:45.193Z,18.60
2022-10-23T17:08:14.853Z,18.60
2022-10-23T17:10:44.517Z,18.50
2022-10-23T17:13:16.843Z,18.60
2022-10-23T17:15:46.533Z,18.60
2022-10-23T17:18:16.230Z,18.50
2022-10-23T17:20:45.915Z,18.50
2022-10-23T17:23:15.563Z,18.40
2022-10-23T17:25:45.242Z,18.50
2022-10-23T17:28:17.499Z,18.50
2022-10-23T17:30:47.177Z,18.50
2022-10-23T17:33:16.892Z,18.50
2022-10-23T17:35:47.463Z,18.50
2022-10-23T17:38:19.266Z,18.50
2022-10-23T17:40:49.712Z,18.50
2022-10-23T17:43:22.002Z,18.50
2022-10-23T17:45:51.669Z,18.50
2022-10-23T17:48:21.330Z,18.60
2022-10-23T17:50:51.248Z,18.50
2022-10-23T17:53:20.923Z,18.50
2022-10-23T17:55:50.700Z,18.60
2022-10-23T17:58:22.945Z,18.60
2022-10-23T18:00:52.920Z,18.60
2022-10-23T18:03:22.678Z,18.60
2022-10-23T18:05:52.509Z,18.70
2022-10-23T18:08:22.189Z,18.70
2022-10-23T18:10:51.899Z,18.70
2022-10-23T18:13:24.419Z,18.70
2022-10-23T18:15:54.323Z,18.70
2022-10-23T18:18:24.301Z,18.40
2022-10-23T18:20:54.321Z,17.50
2022-10-23T18:23:24.314Z,17.20
2022-10-23T18:25:54.199Z,16.80
2022-10-23T18:28:26.798Z,16.50
2022-10-23T18:30:57.193Z,16.20
2022-10-23T18:33:27.291Z,16.00
2022-10-23T18:35:57.227Z,15.90
2022-10-23T18:38:27.259Z,15.70
2022-10-23T18:40:57.427Z,15.60
2022-10-23T18:43:43.168Z,15.50
2022-10-23T18:46:13.723Z,15.40
2022-10-23T18:48:43.830Z,15.40
2022-10-23T18:51:17.629Z,15.30
2022-10-23T18:53:53.826Z,15.20
2022-10-23T18:56:26.757Z,15.20
2022-10-23T18:58:59.799Z,15.20
2022-10-23T19:01:30.153Z,15.20
2022-10-23T19:04:00.700Z,15.10
2022-10-23T19:06:31.021Z,15.20
2022-10-23T19:09:01.112Z,15.30
2022-10-23T19:11:31.413Z,15.20
2022-10-23T19:14:03.825Z,15.30
2022-10-23T19:16:36.296Z,15.30
2022-10-23T19:19:07.636Z,15.40
2022-10-23T19:21:39.079Z,15.40
2022-10-23T19:24:10.685Z,15.50
2022-10-23T19:26:41.259Z,15.50
2022-10-23T19:29:16.081Z,15.50
2022-10-23T19:31:49.167Z,15.60
2022-10-23T19:34:20.289Z,15.50
2022-10-23T19:36:50.043Z,15.50
2022-10-23T19:39:20.206Z,15.50
2022-10-23T19:41:51.719Z,15.50
2022-10-23T19:44:24.514Z,15.50
2022-10-23T19:46:54.212Z,15.60
2022-10-23T19:49:24.067Z,15.60
2022-10-23T19:51:53.793Z,15.60
2022-10-23T19:54:24.031Z,15.50
2022-10-23T19:56:53.842Z,15.60
2022-10-23T19:59:26.309Z,15.60
2022-10-23T20:01:56.103Z,15.60
2022-10-23T20:04:25.974Z,15.50
2022-10-23T20:06:55.619Z,15.60
2022-10-23T20:09:25.555Z,15.60
2022-10-23T20:11:55.814Z,15.60
2022-10-23T20:14:28.102Z,15.50
2022-10-23T20:16:57.838Z,15.50
2022-10-23T20:19:27.491Z,15.50
2022-10-23T20:21:57.234Z,15.50
2022-10-23T20:24:26.881Z,15.50
2022-10-23T20:26:57.595Z,15.50
2022-10-23T20:29:29.949Z,15.50
2022-10-23T20:31:59.681Z,15.50
2022-10-23T20:34:29.335Z,15.50
2022-10-23T20:36:59.077Z,15.60
2022-10-23T20:39:29.872Z,15.60
2022-10-23T20:42:00.384Z,15.60
2022-10-23T20:44:32.798Z,15.60
2022-10-23T20:47:02.468Z,15.60
2022-10-23T20:49:32.267Z,15.60
2022-10-23T20:52:02.844Z,15.60
2022-10-23T20:54:32.622Z,15.60
2022-10-23T20:57:02.389Z,15.60
2022-10-23T20:59:35.438Z,15.60
2022-10-23T21:02:05.273Z,15.50
2022-10-23T21:04:35.260Z,15.50
2022-10-23T21:07:09.924Z,15.50
2022-10-23T21:09:40.790Z,15.50
2022-10-23T21:12:10.678Z,15.50
2022-10-23T21:14:43.111Z,15.30
2022-10-23T21:17:16.880Z,15.40
2022-10-23T21:19:46.613Z,15.40
2022-10-23T21:22:16.292Z,15.40
2022-10-23T21:24:45.937Z,15.50
2022-10-23T21:27:15.654Z,15.40
2022-10-23T21:29:47.932Z,15.40
2022-10-23T21:32:19.188Z,15.50
2022-10-23T21:34:48.850Z,15.40
2022-10-23T21:37:18.794Z,15.40
2022-10-23T21:39:48.851Z,15.40
2022-10-23T21:42:18.743Z,15.40
2022-10-23T21:44:51.203Z,15.30
2022-10-23T21:47:20.960Z,15.30
2022-10-23T21:49:50.664Z,15.30
2022-10-23T21:52:20.400Z,15.30
2022-10-23T21:54:53.970Z,15.30
2022-10-23T21:57:23.918Z,15.30
2022-10-23T21:59:57.074Z,15.30
2022-10-23T22:02:27.505Z,15.30
2022-10-23T22:04:57.238Z,15.30
2022-10-23T22:10:16.647Z,15.20
2022-10-23T22:12:46.370Z,15.30
2022-10-23T22:15:18.932Z,15.30
2022-10-23T22:17:48.690Z,15.30
2022-10-23T22:20:18.439Z,15.30
2022-10-23T22:22:48.256Z,15.30
2022-10-23T22:25:18.205Z,15.30
2022-10-23T22:27:47.848Z,15.30
2022-10-23T22:30:22.319Z,15.40
2022-10-23T22:32:52.109Z,15.30
2022-10-23T22:35:21.767Z,15.30
2022-10-23T22:37:51.498Z,15.30
2022-10-23T22:40:21.182Z,15.40
2022-10-23T22:42:51.036Z,15.40
2022-10-23T22:45:23.330Z,15.30
2022-10-23T22:47:53.007Z,15.30
2022-10-23T22:50:22.713Z,15.30
2022-10-23T22:52:52.641Z,15.30
2022-10-23T22:55:22.435Z,15.40
2022-10-23T22:57:52.190Z,15.40
2022-10-23T23:00:24.743Z,15.30
2022-10-23T23:02:54.592Z,15.40
2022-10-23T23:05:24.273Z,15.40
2022-10-23T23:07:54.069Z,15.40
2022-10-23T23:10:23.693Z,15.40
2022-10-23T23:12:53.517Z,15.40
2022-10-23T23:15:25.833Z,15.40
2022-10-23T23:17:55.653Z,15.50
2022-10-23T23:20:25.440Z,15.50
2022-10-23T23:22:55.079Z,15.50
2022-10-23T23:25:24.755Z,15.50
2022-10-23T23:27:54.542Z,15.50
2022-10-23T23:30:27.082Z,15.60
2022-10-23T23:32:56.846Z,15.60
2022-10-23T23:35:26.568Z,15.60
2022-10-23T23:37:56.198Z,15.50
2022-10-23T23:40:25.884Z,15.60
2022-10-23T23:42:55.528Z,15.60
2022-10-23T23:45:27.796Z,15.50
2022-10-23T23:47:57.488Z,15.50
2022-10-23T23:50:28.080Z,15.50
2022-10-23T23:52:57.869Z,15.50
2022-10-23T23:55:27.580Z,15.50
2022-10-23T23:58:00.231Z,15.60
